Terminal Aerodrome Forecast
Issued by NWS

Home | Current Version | Previous Version | Text Only | Print | Product List | Glossary On
Versions: 1 2 3 4 5 6 7 8 9 10 11 12 13 14 15
000
FTUS45 KRIW 302300
TAFJAC
TAF
KJAC 302324Z 0100/0124 19008KT P6SM -SHRA VCTS SCT030 BKN050CB
     FM010200 21005KT P6SM VCSH SCT020 BKN050
     FM011800 21010KT P6SM VCTS SCT030CB BKN040
      AMD LTD TO CLD VIS AND WIND=

USA.gov is the U.S. government's official web portal to all federal, state and local government web resources and services.